Terminal Aerodrome Forecast
Issued by NWS

Home | Current Version | Previous Version | Text Only | Print | Product List | Glossary On
Versions: 1 2 3 4 5 6 7 8 9 10 11 12 13 14 15 16 17 18 19 20 21 22 23 24 25 26 27
000
FTAK31 PANC 192326
TAFATK
TAF
PATK 192326Z 2000/2024 VRB04KT 6SM -SN SCT025 OVC035
      TEMPO 2000/2004 2SM -SN BR BKN012 OVC022
     FM200600 VRB03KT 5SM -SHSN BR SCT025 OVC050
     FM201500 36005KT P6SM SCT015 BKN040=

USA.gov is the U.S. government's official web portal to all federal, state and local government web resources and services.